GTI563 EGLL-LIMC
Flight info
| Callsign | GTI563 |
|---|---|
| Flight time | 1h 32m |
| Altitude | 35000 |
| Route | MODMI M185 MID UL612 OGULO DCT OKASI DCT OKEKO DCT MOU DCT MADIV DCT MOKIP DCT TUFTA DCT GEVEA/N0493F330 DCT MOBLO/N0500F290 DCT LURAG DCT OBUXA DCT TOP/N0446F190 M135 ASTIG |
| Aircraft | B742/H-SDFHIRWXY/L |
Departure
| Time | 2026-05-05 13:52 |
|---|---|
| Airport | London Heathrow Airport (EGLL) |
Arrival
| Time | 2026-05-05 15:24 |
|---|---|
| Airport | Milan Malpensa International Airport (LIMC) |
| Time | Latitude | Longitude | Altitude | Speed | Heading |
|---|---|---|---|---|---|
| 2026-05-05 13:31 | 51.46237 | -0.45960 | 87 ft | 0 kts | 180° |
| 2026-05-05 13:39 | 51.46244 | -0.45960 | 87 ft | 2 kts | 180° |
| 2026-05-05 13:39 | 51.46258 | -0.45960 | 87 ft | 2 kts | 180° |
| 2026-05-05 13:40 | 51.46273 | -0.45960 | 87 ft | 2 kts | 182° |
| 2026-05-05 13:40 | 51.46288 | -0.45956 | 87 ft | 2 kts | 202° |
| 2026-05-05 13:40 | 51.46301 | -0.45945 | 87 ft | 2 kts | 218° |
| 2026-05-05 13:40 | 51.46312 | -0.45928 | 87 ft | 2 kts | 234° |
| 2026-05-05 13:41 | 51.46319 | -0.45908 | 87 ft | 2 kts | 250° |
| 2026-05-05 13:41 | 51.46323 | -0.45884 | 87 ft | 2 kts | 266° |
| 2026-05-05 13:41 | 51.46323 | -0.45873 | 87 ft | 1 kts | 271° |
| 2026-05-05 13:41 | 51.46323 | -0.45872 | 87 ft | 0 kts | 271° |
| 2026-05-05 13:44 | 51.46323 | -0.45877 | 87 ft | 1 kts | 271° |
| 2026-05-05 13:44 | 51.46323 | -0.45910 | 87 ft | 4 kts | 271° |
| 2026-05-05 13:45 | 51.46323 | -0.45980 | 87 ft | 8 kts | 270° |
| 2026-05-05 13:45 | 51.46323 | -0.46089 | 87 ft | 11 kts | 270° |
| 2026-05-05 13:45 | 51.46322 | -0.46239 | 87 ft | 15 kts | 269° |
| 2026-05-05 13:45 | 51.46321 | -0.46425 | 87 ft | 18 kts | 270° |
| 2026-05-05 13:46 | 51.46321 | -0.46645 | 87 ft | 21 kts | 271° |
| 2026-05-05 13:46 | 51.46321 | -0.46903 | 86 ft | 25 kts | 270° |
| 2026-05-05 13:46 | 51.46321 | -0.47190 | 86 ft | 25 kts | 270° |
| 2026-05-05 13:46 | 51.46336 | -0.47459 | 86 ft | 23 kts | 275° |
| 2026-05-05 13:47 | 51.46313 | -0.47699 | 86 ft | 21 kts | 243° |
| 2026-05-05 13:47 | 51.46254 | -0.47901 | 86 ft | 18 kts | 261° |
| 2026-05-05 13:47 | 51.46250 | -0.48095 | 86 ft | 16 kts | 270° |
| 2026-05-05 13:47 | 51.46249 | -0.48267 | 86 ft | 14 kts | 270° |
| 2026-05-05 13:48 | 51.46250 | -0.48417 | 86 ft | 13 kts | 271° |
| 2026-05-05 13:48 | 51.46253 | -0.48561 | 86 ft | 12 kts | 278° |
| 2026-05-05 13:48 | 51.46279 | -0.48669 | 86 ft | 5 kts | 308° |
| 2026-05-05 13:48 | 51.46297 | -0.48699 | 86 ft | 0 kts | 322° |
| 2026-05-05 13:49 | 51.46302 | -0.48705 | 86 ft | 2 kts | 324° |
| 2026-05-05 13:49 | 51.46333 | -0.48730 | 86 ft | 7 kts | 338° |
| 2026-05-05 13:50 | 51.46395 | -0.48754 | 86 ft | 9 kts | 358° |
| 2026-05-05 13:50 | 51.46450 | -0.48743 | 86 ft | 6 kts | 30° |
| 2026-05-05 13:50 | 51.46475 | -0.48691 | 86 ft | 5 kts | 68° |
| 2026-05-05 13:50 | 51.46478 | -0.48656 | 86 ft | 0 kts | 90° |
| 2026-05-05 13:51 | 51.46478 | -0.48655 | 86 ft | 0 kts | 90° |
| 2026-05-05 13:51 | 51.46479 | -0.48546 | 87 ft | 32 kts | 90° |
| 2026-05-05 13:52 | 51.46481 | -0.47848 | 87 ft | 94 kts | 90° |
| 2026-05-05 13:52 | 51.46484 | -0.46503 | 87 ft | 148 kts | 90° |
| 2026-05-05 13:52 | 51.46487 | -0.44665 | 207 ft | 179 kts | 89° |
| 2026-05-05 13:52 | 51.46477 | -0.42668 | 715 ft | 182 kts | 88° |
| 2026-05-05 13:53 | 51.46377 | -0.40655 | 1303 ft | 185 kts | 110° |
| 2026-05-05 13:53 | 51.45590 | -0.39013 | 1880 ft | 189 kts | 133° |
| 2026-05-05 13:53 | 51.44626 | -0.37628 | 2445 ft | 192 kts | 152° |
| 2026-05-05 13:53 | 51.43295 | -0.37002 | 2800 ft | 208 kts | 163° |
| 2026-05-05 13:54 | 51.41819 | -0.36385 | 3077 ft | 229 kts | 163° |
| 2026-05-05 13:54 | 51.40192 | -0.35912 | 3349 ft | 245 kts | 184° |
| 2026-05-05 13:54 | 51.38531 | -0.36677 | 3631 ft | 256 kts | 205° |
| 2026-05-05 13:54 | 51.36846 | -0.37971 | 3916 ft | 277 kts | 206° |
| 2026-05-05 13:55 | 51.35103 | -0.39354 | 4485 ft | 285 kts | 206° |
| 2026-05-05 13:55 | 51.33289 | -0.40786 | 5231 ft | 288 kts | 206° |
| 2026-05-05 13:55 | 51.31482 | -0.42207 | 5978 ft | 291 kts | 206° |
| 2026-05-05 13:55 | 51.29669 | -0.43631 | 6727 ft | 293 kts | 206° |
| 2026-05-05 13:56 | 51.27835 | -0.45069 | 7485 ft | 294 kts | 207° |
| 2026-05-05 13:56 | 51.25977 | -0.46548 | 8258 ft | 295 kts | 207° |
| 2026-05-05 13:56 | 51.24141 | -0.48018 | 9022 ft | 296 kts | 207° |
| 2026-05-05 13:56 | 51.22287 | -0.49482 | 9771 ft | 296 kts | 206° |
| 2026-05-05 13:57 | 51.20452 | -0.50906 | 10359 ft | 303 kts | 206° |
| 2026-05-05 13:57 | 51.18462 | -0.52449 | 10554 ft | 325 kts | 206° |
| 2026-05-05 13:57 | 51.16317 | -0.54110 | 10754 ft | 346 kts | 206° |
| 2026-05-05 13:57 | 51.14082 | -0.55843 | 10949 ft | 366 kts | 206° |
| 2026-05-05 13:58 | 51.11715 | -0.57677 | 11143 ft | 386 kts | 206° |
| 2026-05-05 13:58 | 51.09184 | -0.59423 | 11513 ft | 396 kts | 197° |
| 2026-05-05 13:58 | 51.06501 | -0.60150 | 12294 ft | 395 kts | 181° |
| 2026-05-05 13:58 | 51.03751 | -0.59769 | 12970 ft | 396 kts | 166° |
| 2026-05-05 13:59 | 50.98812 | -0.55986 | 14245 ft | 398 kts | 144° |
| 2026-05-05 13:59 | 50.96542 | -0.53434 | 14849 ft | 401 kts | 143° |
| 2026-05-05 14:00 | 50.91914 | -0.48274 | 16058 ft | 409 kts | 144° |
| 2026-05-05 14:00 | 50.89567 | -0.45737 | 16646 ft | 412 kts | 145° |
| 2026-05-05 14:00 | 50.87209 | -0.43214 | 17230 ft | 415 kts | 145° |
| 2026-05-05 14:00 | 50.84780 | -0.40631 | 17827 ft | 418 kts | 145° |
| 2026-05-05 14:01 | 50.82370 | -0.38076 | 18378 ft | 422 kts | 146° |
| 2026-05-05 14:01 | 50.79928 | -0.35493 | 18944 ft | 425 kts | 146° |
| 2026-05-05 14:01 | 50.77450 | -0.32875 | 19518 ft | 428 kts | 146° |
| 2026-05-05 14:01 | 50.74976 | -0.30264 | 20084 ft | 431 kts | 146° |
| 2026-05-05 14:02 | 50.72459 | -0.27611 | 20658 ft | 433 kts | 146° |
| 2026-05-05 14:02 | 50.69976 | -0.24998 | 21191 ft | 436 kts | 146° |
| 2026-05-05 14:02 | 50.67430 | -0.22320 | 21724 ft | 439 kts | 146° |
| 2026-05-05 14:02 | 50.64857 | -0.19618 | 22240 ft | 442 kts | 146° |
| 2026-05-05 14:03 | 50.62314 | -0.16951 | 22762 ft | 444 kts | 146° |
| 2026-05-05 14:03 | 50.59716 | -0.14230 | 23246 ft | 447 kts | 146° |
| 2026-05-05 14:03 | 50.57117 | -0.11510 | 23698 ft | 450 kts | 146° |
| 2026-05-05 14:03 | 50.54495 | -0.08770 | 24158 ft | 452 kts | 146° |
| 2026-05-05 14:04 | 50.51867 | -0.06026 | 24646 ft | 454 kts | 146° |
| 2026-05-05 14:04 | 50.49236 | -0.03284 | 25086 ft | 456 kts | 146° |
| 2026-05-05 14:04 | 50.46613 | -0.00554 | 25468 ft | 459 kts | 146° |
| 2026-05-05 14:04 | 50.43924 | 0.02242 | 25867 ft | 461 kts | 146° |
| 2026-05-05 14:05 | 50.41244 | 0.05024 | 26238 ft | 463 kts | 146° |
| 2026-05-05 14:05 | 50.38582 | 0.07785 | 26603 ft | 465 kts | 146° |
| 2026-05-05 14:05 | 50.35880 | 0.10583 | 26995 ft | 466 kts | 146° |
| 2026-05-05 14:05 | 50.33159 | 0.13396 | 27383 ft | 467 kts | 146° |
| 2026-05-05 14:06 | 50.30456 | 0.16189 | 27820 ft | 467 kts | 146° |
| 2026-05-05 14:06 | 50.27739 | 0.18991 | 28292 ft | 466 kts | 146° |
| 2026-05-05 14:06 | 50.25062 | 0.21748 | 28760 ft | 465 kts | 146° |
| 2026-05-05 14:06 | 50.22390 | 0.24495 | 29275 ft | 462 kts | 146° |
| 2026-05-05 14:07 | 50.19745 | 0.27213 | 29797 ft | 459 kts | 146° |
| 2026-05-05 14:07 | 50.17094 | 0.29944 | 30327 ft | 456 kts | 146° |
| 2026-05-05 14:07 | 50.14515 | 0.32601 | 30849 ft | 454 kts | 146° |
| 2026-05-05 14:07 | 50.11899 | 0.35295 | 31343 ft | 451 kts | 146° |
| 2026-05-05 14:08 | 50.09290 | 0.37979 | 31819 ft | 449 kts | 146° |
| 2026-05-05 14:08 | 50.06762 | 0.40574 | 32194 ft | 448 kts | 146° |
| 2026-05-05 14:08 | 50.04153 | 0.43248 | 32580 ft | 448 kts | 147° |
| 2026-05-05 14:08 | 50.01577 | 0.45885 | 32824 ft | 451 kts | 147° |
| 2026-05-05 14:09 | 49.96307 | 0.51267 | 32896 ft | 465 kts | 147° |
| 2026-05-05 14:09 | 49.90843 | 0.56831 | 32892 ft | 479 kts | 146° |
| 2026-05-05 14:10 | 49.85408 | 0.62417 | 32884 ft | 473 kts | 143° |
| 2026-05-05 14:10 | 49.80316 | 0.68629 | 32882 ft | 471 kts | 141° |
| 2026-05-05 14:11 | 49.75229 | 0.75041 | 32871 ft | 472 kts | 141° |
| 2026-05-05 14:11 | 49.70100 | 0.81497 | 32866 ft | 472 kts | 141° |
| 2026-05-05 14:12 | 49.65017 | 0.87872 | 32868 ft | 471 kts | 141° |
| 2026-05-05 14:12 | 49.59911 | 0.94254 | 32859 ft | 471 kts | 141° |
| 2026-05-05 14:13 | 49.54743 | 1.00694 | 32855 ft | 471 kts | 141° |
| 2026-05-05 14:13 | 49.49659 | 1.07013 | 32854 ft | 471 kts | 141° |
| 2026-05-05 14:14 | 49.44559 | 1.13332 | 32862 ft | 470 kts | 141° |
| 2026-05-05 14:14 | 49.39452 | 1.19644 | 32864 ft | 469 kts | 141° |
| 2026-05-05 14:15 | 49.34322 | 1.25968 | 32862 ft | 469 kts | 141° |
| 2026-05-05 14:15 | 49.29213 | 1.32251 | 32853 ft | 471 kts | 141° |
| 2026-05-05 14:16 | 49.24105 | 1.38514 | 32845 ft | 470 kts | 141° |
| 2026-05-05 14:16 | 49.18960 | 1.44805 | 32835 ft | 470 kts | 141° |
| 2026-05-05 14:17 | 49.13854 | 1.51031 | 32827 ft | 470 kts | 140° |
| 2026-05-05 14:17 | 49.08744 | 1.57244 | 32828 ft | 468 kts | 140° |
| 2026-05-05 14:18 | 49.03658 | 1.63412 | 32824 ft | 468 kts | 140° |
| 2026-05-05 14:18 | 48.98536 | 1.69546 | 32825 ft | 468 kts | 142° |
| 2026-05-05 14:19 | 48.93388 | 1.75654 | 32824 ft | 468 kts | 141° |
| 2026-05-05 14:19 | 48.88301 | 1.81737 | 32819 ft | 468 kts | 141° |
| 2026-05-05 14:20 | 48.83170 | 1.87889 | 32817 ft | 468 kts | 141° |
| 2026-05-05 14:20 | 48.78066 | 1.93997 | 32824 ft | 468 kts | 141° |
| 2026-05-05 14:21 | 48.72969 | 2.00081 | 32823 ft | 467 kts | 141° |
| 2026-05-05 14:21 | 48.67828 | 2.06200 | 32821 ft | 468 kts | 141° |
| 2026-05-05 14:22 | 48.62710 | 2.12276 | 32820 ft | 469 kts | 141° |
| 2026-05-05 14:22 | 48.57573 | 2.18360 | 32816 ft | 470 kts | 140° |
| 2026-05-05 14:23 | 48.52770 | 2.25172 | 32817 ft | 470 kts | 133° |
| 2026-05-05 14:23 | 48.48175 | 2.32302 | 32814 ft | 470 kts | 133° |
| 2026-05-05 14:24 | 48.43598 | 2.39333 | 32811 ft | 470 kts | 134° |
| 2026-05-05 14:24 | 48.38985 | 2.46335 | 32808 ft | 471 kts | 134° |
| 2026-05-05 14:25 | 48.34343 | 2.53341 | 32807 ft | 471 kts | 134° |
| 2026-05-05 14:25 | 48.29662 | 2.60354 | 32801 ft | 471 kts | 136° |
| 2026-05-05 14:26 | 48.27029 | 2.63336 | 32805 ft | 472 kts | 148° |
| 2026-05-05 14:26 | 48.24089 | 2.65690 | 32807 ft | 475 kts | 153° |
| 2026-05-05 14:26 | 48.18126 | 2.69924 | 32803 ft | 475 kts | 152° |
| 2026-05-05 14:27 | 48.12215 | 2.74572 | 32803 ft | 475 kts | 151° |
| 2026-05-05 14:27 | 48.06308 | 2.79113 | 32800 ft | 475 kts | 154° |
| 2026-05-05 14:28 | 48.00190 | 2.83026 | 32801 ft | 476 kts | 156° |
| 2026-05-05 14:28 | 47.94097 | 2.86831 | 32790 ft | 475 kts | 156° |
| 2026-05-05 14:29 | 47.87954 | 2.90701 | 32798 ft | 475 kts | 156° |
| 2026-05-05 14:29 | 47.81800 | 2.94593 | 32796 ft | 477 kts | 156° |
| 2026-05-05 14:30 | 47.75677 | 2.98461 | 32795 ft | 476 kts | 156° |
| 2026-05-05 14:30 | 47.69519 | 3.02341 | 32809 ft | 476 kts | 156° |
| 2026-05-05 14:31 | 47.63399 | 3.06187 | 32807 ft | 475 kts | 156° |
| 2026-05-05 14:31 | 47.57252 | 3.10039 | 32822 ft | 475 kts | 156° |
| 2026-05-05 14:32 | 47.51165 | 3.13843 | 32817 ft | 475 kts | 156° |
| 2026-05-05 14:32 | 47.45049 | 3.17655 | 32817 ft | 476 kts | 156° |
| 2026-05-05 14:33 | 47.38918 | 3.21467 | 32820 ft | 476 kts | 157° |
| 2026-05-05 14:33 | 47.32771 | 3.25279 | 32817 ft | 476 kts | 157° |
| 2026-05-05 14:34 | 47.26608 | 3.29091 | 32827 ft | 477 kts | 157° |
| 2026-05-05 14:34 | 47.20434 | 3.32900 | 32828 ft | 478 kts | 157° |
| 2026-05-05 14:35 | 47.14243 | 3.36710 | 32830 ft | 478 kts | 157° |
| 2026-05-05 14:35 | 47.08098 | 3.40482 | 32841 ft | 478 kts | 157° |
| 2026-05-05 14:36 | 47.01905 | 3.44273 | 32831 ft | 478 kts | 157° |
| 2026-05-05 14:36 | 46.95724 | 3.48049 | 32844 ft | 480 kts | 158° |
| 2026-05-05 14:37 | 46.89555 | 3.51807 | 32852 ft | 479 kts | 158° |
| 2026-05-05 14:37 | 46.83367 | 3.55569 | 32846 ft | 478 kts | 158° |
| 2026-05-05 14:38 | 46.77197 | 3.59336 | 32842 ft | 479 kts | 155° |
| 2026-05-05 14:38 | 46.74331 | 3.61832 | 32844 ft | 481 kts | 143° |
| 2026-05-05 14:38 | 46.71906 | 3.65139 | 32850 ft | 484 kts | 132° |
| 2026-05-05 14:39 | 46.69962 | 3.69229 | 32846 ft | 488 kts | 120° |
| 2026-05-05 14:39 | 46.68636 | 3.73828 | 32849 ft | 492 kts | 110° |
| 2026-05-05 14:39 | 46.66975 | 3.83494 | 32846 ft | 495 kts | 105° |
| 2026-05-05 14:40 | 46.65473 | 3.93264 | 32844 ft | 495 kts | 106° |
| 2026-05-05 14:40 | 46.63858 | 4.03035 | 32855 ft | 495 kts | 106° |
| 2026-05-05 14:41 | 46.62185 | 4.12777 | 32861 ft | 496 kts | 107° |
| 2026-05-05 14:41 | 46.60496 | 4.22488 | 32876 ft | 497 kts | 107° |
| 2026-05-05 14:42 | 46.58785 | 4.32273 | 32871 ft | 497 kts | 107° |
| 2026-05-05 14:42 | 46.57072 | 4.42025 | 32868 ft | 498 kts | 107° |
| 2026-05-05 14:43 | 46.55344 | 4.51807 | 32871 ft | 499 kts | 107° |
| 2026-05-05 14:43 | 46.53615 | 4.61541 | 32875 ft | 500 kts | 107° |
| 2026-05-05 14:44 | 46.51840 | 4.71340 | 32871 ft | 500 kts | 109° |
| 2026-05-05 14:44 | 46.50028 | 4.81122 | 32862 ft | 500 kts | 108° |
| 2026-05-05 14:45 | 46.48238 | 4.90914 | 32870 ft | 503 kts | 108° |
| 2026-05-05 14:45 | 46.46459 | 5.00704 | 32867 ft | 503 kts | 108° |
| 2026-05-05 14:46 | 46.44664 | 5.10546 | 32861 ft | 504 kts | 108° |
| 2026-05-05 14:46 | 46.42852 | 5.20446 | 32854 ft | 506 kts | 108° |
| 2026-05-05 14:47 | 46.41037 | 5.30312 | 32857 ft | 505 kts | 109° |
| 2026-05-05 14:47 | 46.39217 | 5.40150 | 32846 ft | 505 kts | 109° |
| 2026-05-05 14:48 | 46.37406 | 5.49926 | 32856 ft | 508 kts | 109° |
| 2026-05-05 14:48 | 46.35555 | 5.59904 | 32853 ft | 510 kts | 109° |
| 2026-05-05 14:49 | 46.33708 | 5.69734 | 32855 ft | 509 kts | 110° |
| 2026-05-05 14:49 | 46.31782 | 5.79676 | 32863 ft | 510 kts | 110° |
| 2026-05-05 14:50 | 46.29887 | 5.89586 | 32867 ft | 510 kts | 110° |
| 2026-05-05 14:50 | 46.28009 | 5.99469 | 32882 ft | 512 kts | 110° |
| 2026-05-05 14:51 | 46.25966 | 6.09380 | 32889 ft | 508 kts | 118° |
| 2026-05-05 14:51 | 46.24284 | 6.13832 | 32891 ft | 498 kts | 130° |
| 2026-05-05 14:51 | 46.22134 | 6.17633 | 32894 ft | 492 kts | 139° |
| 2026-05-05 14:52 | 46.17222 | 6.24458 | 32891 ft | 491 kts | 143° |
| 2026-05-05 14:52 | 46.12169 | 6.31062 | 32895 ft | 491 kts | 143° |
| 2026-05-05 14:53 | 46.07115 | 6.37734 | 32900 ft | 490 kts | 143° |
| 2026-05-05 14:53 | 46.02114 | 6.44379 | 32908 ft | 493 kts | 143° |
| 2026-05-05 14:54 | 45.97065 | 6.51089 | 32924 ft | 493 kts | 143° |
| 2026-05-05 14:54 | 45.91995 | 6.57813 | 32929 ft | 493 kts | 143° |
| 2026-05-05 14:55 | 45.87691 | 6.63507 | 32924 ft | 494 kts | 143° |
| 2026-05-05 14:55 | 45.82612 | 6.70150 | 32911 ft | 490 kts | 144° |
| 2026-05-05 14:56 | 45.77527 | 6.76731 | 32918 ft | 492 kts | 145° |
| 2026-05-05 14:56 | 45.72457 | 6.83317 | 32929 ft | 494 kts | 144° |
| 2026-05-05 14:57 | 45.67353 | 6.89965 | 32735 ft | 489 kts | 144° |
| 2026-05-05 14:57 | 45.64891 | 6.93178 | 32482 ft | 478 kts | 144° |
| 2026-05-05 14:57 | 45.62450 | 6.96361 | 32216 ft | 466 kts | 145° |
| 2026-05-05 14:58 | 45.60063 | 6.99467 | 31961 ft | 455 kts | 145° |
| 2026-05-05 14:58 | 45.57746 | 7.02474 | 31623 ft | 447 kts | 145° |
| 2026-05-05 14:58 | 45.55426 | 7.05471 | 30939 ft | 448 kts | 146° |
| 2026-05-05 14:58 | 45.53157 | 7.08525 | 30221 ft | 454 kts | 139° |
| 2026-05-05 14:59 | 45.51223 | 7.12117 | 29498 ft | 464 kts | 131° |
| 2026-05-05 14:59 | 45.49470 | 7.16019 | 28763 ft | 467 kts | 128° |
| 2026-05-05 14:59 | 45.47809 | 7.19923 | 28042 ft | 468 kts | 127° |
| 2026-05-05 14:59 | 45.46144 | 7.23859 | 27321 ft | 469 kts | 127° |
| 2026-05-05 15:00 | 45.44457 | 7.27813 | 26594 ft | 469 kts | 127° |
| 2026-05-05 15:00 | 45.43307 | 7.30485 | 26099 ft | 469 kts | 127° |
| 2026-05-05 15:00 | 45.40955 | 7.35638 | 25130 ft | 463 kts | 134° |
| 2026-05-05 15:00 | 45.38726 | 7.38892 | 24382 ft | 453 kts | 144° |
| 2026-05-05 15:01 | 45.36270 | 7.41654 | 23647 ft | 450 kts | 148° |
| 2026-05-05 15:01 | 45.33736 | 7.44258 | 22897 ft | 448 kts | 149° |
| 2026-05-05 15:01 | 45.31199 | 7.46811 | 22164 ft | 448 kts | 149° |
| 2026-05-05 15:01 | 45.28641 | 7.49392 | 21411 ft | 447 kts | 149° |
| 2026-05-05 15:02 | 45.26119 | 7.51952 | 20676 ft | 446 kts | 148° |
| 2026-05-05 15:02 | 45.23601 | 7.54522 | 19947 ft | 445 kts | 148° |
| 2026-05-05 15:02 | 45.21061 | 7.57123 | 19204 ft | 444 kts | 148° |
| 2026-05-05 15:02 | 45.18550 | 7.59698 | 18478 ft | 443 kts | 148° |
| 2026-05-05 15:03 | 45.16048 | 7.62265 | 17840 ft | 438 kts | 147° |
| 2026-05-05 15:03 | 45.13577 | 7.64805 | 17562 ft | 426 kts | 148° |
| 2026-05-05 15:03 | 45.11209 | 7.67214 | 17297 ft | 414 kts | 149° |
| 2026-05-05 15:03 | 45.08885 | 7.69548 | 17034 ft | 403 kts | 149° |
| 2026-05-05 15:04 | 45.06605 | 7.71844 | 16768 ft | 392 kts | 149° |
| 2026-05-05 15:04 | 45.04398 | 7.74081 | 16502 ft | 382 kts | 149° |
| 2026-05-05 15:04 | 45.02235 | 7.76280 | 16233 ft | 373 kts | 149° |
| 2026-05-05 15:04 | 45.00149 | 7.78404 | 15969 ft | 363 kts | 149° |
| 2026-05-05 15:05 | 44.96127 | 7.82505 | 15440 ft | 346 kts | 148° |
| 2026-05-05 15:05 | 44.94385 | 7.84869 | 15180 ft | 345 kts | 131° |
| 2026-05-05 15:05 | 44.93212 | 7.87860 | 14919 ft | 348 kts | 114° |
| 2026-05-05 15:06 | 44.92707 | 7.91254 | 14651 ft | 354 kts | 96° |
| 2026-05-05 15:06 | 44.92750 | 7.94771 | 14393 ft | 354 kts | 89° |
| 2026-05-05 15:06 | 44.92938 | 7.98181 | 14132 ft | 347 kts | 88° |
| 2026-05-05 15:06 | 44.93120 | 8.01582 | 13874 ft | 340 kts | 89° |
| 2026-05-05 15:07 | 44.93269 | 8.04872 | 13626 ft | 334 kts | 89° |
| 2026-05-05 15:07 | 44.93400 | 8.08134 | 13365 ft | 327 kts | 90° |
| 2026-05-05 15:07 | 44.93522 | 8.11314 | 13095 ft | 323 kts | 90° |
| 2026-05-05 15:07 | 44.93641 | 8.14491 | 12838 ft | 322 kts | 89° |
| 2026-05-05 15:08 | 44.93760 | 8.17682 | 12576 ft | 322 kts | 89° |
| 2026-05-05 15:08 | 44.93877 | 8.20815 | 12316 ft | 320 kts | 89° |
| 2026-05-05 15:08 | 44.93994 | 8.23938 | 12055 ft | 318 kts | 89° |
| 2026-05-05 15:08 | 44.94109 | 8.27064 | 11784 ft | 316 kts | 89° |
| 2026-05-05 15:09 | 44.94369 | 8.30142 | 11517 ft | 315 kts | 78° |
| 2026-05-05 15:09 | 44.94945 | 8.33130 | 11262 ft | 315 kts | 74° |
| 2026-05-05 15:09 | 44.95558 | 8.36051 | 11007 ft | 313 kts | 74° |
| 2026-05-05 15:09 | 44.96162 | 8.38988 | 10746 ft | 309 kts | 75° |
| 2026-05-05 15:10 | 44.96750 | 8.41906 | 10465 ft | 306 kts | 75° |
| 2026-05-05 15:10 | 44.97327 | 8.44801 | 10220 ft | 303 kts | 75° |
| 2026-05-05 15:10 | 44.97897 | 8.47671 | 9953 ft | 302 kts | 75° |
| 2026-05-05 15:10 | 44.98467 | 8.50549 | 9676 ft | 301 kts | 75° |
| 2026-05-05 15:11 | 44.99043 | 8.53378 | 9419 ft | 298 kts | 71° |
| 2026-05-05 15:11 | 45.00119 | 8.55818 | 9150 ft | 296 kts | 41° |
| 2026-05-05 15:11 | 45.01899 | 8.57258 | 8890 ft | 296 kts | 12° |
| 2026-05-05 15:11 | 45.03941 | 8.57507 | 8628 ft | 293 kts | 355° |
| 2026-05-05 15:12 | 45.05959 | 8.57191 | 8360 ft | 292 kts | 349° |
| 2026-05-05 15:12 | 45.07957 | 8.56693 | 8088 ft | 291 kts | 347° |
| 2026-05-05 15:12 | 45.09963 | 8.56144 | 7829 ft | 289 kts | 347° |
| 2026-05-05 15:12 | 45.11943 | 8.55592 | 7562 ft | 288 kts | 347° |
| 2026-05-05 15:13 | 45.13905 | 8.55023 | 7287 ft | 285 kts | 343° |
| 2026-05-05 15:13 | 45.15637 | 8.53696 | 7014 ft | 281 kts | 313° |
| 2026-05-05 15:13 | 45.16655 | 8.51417 | 6760 ft | 278 kts | 288° |
| 2026-05-05 15:13 | 45.17459 | 8.48942 | 6487 ft | 279 kts | 305° |
| 2026-05-05 15:14 | 45.18959 | 8.47185 | 6175 ft | 283 kts | 335° |
| 2026-05-05 15:14 | 45.20887 | 8.46699 | 5761 ft | 283 kts | 6° |
| 2026-05-05 15:14 | 45.22717 | 8.47615 | 5314 ft | 275 kts | 37° |
| 2026-05-05 15:14 | 45.23922 | 8.49584 | 4940 ft | 263 kts | 60° |
| 2026-05-05 15:15 | 45.24810 | 8.51875 | 4558 ft | 262 kts | 63° |
| 2026-05-05 15:15 | 45.25652 | 8.54159 | 4207 ft | 261 kts | 63° |
| 2026-05-05 15:15 | 45.26472 | 8.56402 | 4015 ft | 247 kts | 63° |
| 2026-05-05 15:15 | 45.27250 | 8.58539 | 3972 ft | 237 kts | 63° |
| 2026-05-05 15:16 | 45.27979 | 8.60545 | 3946 ft | 214 kts | 63° |
| 2026-05-05 15:16 | 45.28638 | 8.62361 | 3960 ft | 203 kts | 63° |
| 2026-05-05 15:16 | 45.29296 | 8.64129 | 3952 ft | 200 kts | 59° |
| 2026-05-05 15:16 | 45.30111 | 8.65697 | 3960 ft | 199 kts | 38° |
| 2026-05-05 15:17 | 45.31280 | 8.66734 | 3974 ft | 199 kts | 38° |
| 2026-05-05 15:17 | 45.32196 | 8.68237 | 3973 ft | 200 kts | 56° |
| 2026-05-05 15:17 | 45.32954 | 8.69903 | 3959 ft | 199 kts | 60° |
| 2026-05-05 15:17 | 45.33662 | 8.71603 | 3956 ft | 200 kts | 61° |
| 2026-05-05 15:18 | 45.34356 | 8.73341 | 3956 ft | 200 kts | 62° |
| 2026-05-05 15:18 | 45.35032 | 8.75066 | 3953 ft | 201 kts | 62° |
| 2026-05-05 15:18 | 45.35714 | 8.76825 | 3952 ft | 202 kts | 63° |
| 2026-05-05 15:18 | 45.36657 | 8.78288 | 3961 ft | 202 kts | 36° |
| 2026-05-05 15:19 | 45.37882 | 8.79310 | 3946 ft | 202 kts | 21° |
| 2026-05-05 15:19 | 45.39261 | 8.79641 | 3958 ft | 202 kts | 359° |
| 2026-05-05 15:19 | 45.40665 | 8.79467 | 3951 ft | 197 kts | 353° |
| 2026-05-05 15:19 | 45.41980 | 8.79162 | 3945 ft | 186 kts | 351° |
| 2026-05-05 15:20 | 45.43238 | 8.78819 | 3951 ft | 185 kts | 350° |
| 2026-05-05 15:20 | 45.44517 | 8.78461 | 3941 ft | 186 kts | 349° |
| 2026-05-05 15:20 | 45.45818 | 8.78098 | 3761 ft | 187 kts | 350° |
| 2026-05-05 15:20 | 45.47081 | 8.77748 | 3557 ft | 184 kts | 350° |
| 2026-05-05 15:21 | 45.48356 | 8.77396 | 3319 ft | 183 kts | 350° |
| 2026-05-05 15:21 | 45.49593 | 8.77055 | 3084 ft | 181 kts | 350° |
| 2026-05-05 15:21 | 45.50808 | 8.76721 | 2843 ft | 177 kts | 350° |
| 2026-05-05 15:21 | 45.52018 | 8.76388 | 2660 ft | 172 kts | 350° |
| 2026-05-05 15:22 | 45.53171 | 8.76070 | 2411 ft | 163 kts | 350° |
| 2026-05-05 15:22 | 45.54248 | 8.75773 | 2158 ft | 155 kts | 350° |
| 2026-05-05 15:22 | 45.55332 | 8.75474 | 1940 ft | 153 kts | 350° |
| 2026-05-05 15:22 | 45.56389 | 8.75183 | 1769 ft | 156 kts | 350° |
| 2026-05-05 15:23 | 45.57455 | 8.74886 | 1564 ft | 157 kts | 349° |
| 2026-05-05 15:23 | 45.58546 | 8.74587 | 1338 ft | 157 kts | 349° |
| 2026-05-05 15:23 | 45.59601 | 8.74295 | 1120 ft | 155 kts | 350° |
| 2026-05-05 15:23 | 45.60670 | 8.74000 | 911 ft | 154 kts | 349° |
| 2026-05-05 15:24 | 45.61736 | 8.73707 | 719 ft | 152 kts | 349° |
| 2026-05-05 15:24 | 45.62700 | 8.73440 | 726 ft | 122 kts | 349° |
| 2026-05-05 15:24 | 45.63374 | 8.73251 | 740 ft | 76 kts | 349° |
| 2026-05-05 15:24 | 45.63753 | 8.73147 | 748 ft | 40 kts | 350° |
| 2026-05-05 15:25 | 45.63996 | 8.73080 | 753 ft | 31 kts | 349° |
| 2026-05-05 15:25 | 45.64198 | 8.73023 | 757 ft | 27 kts | 345° |
| 2026-05-05 15:25 | 45.64313 | 8.72894 | 760 ft | 19 kts | 303° |
| 2026-05-05 15:25 | 45.64383 | 8.72745 | 762 ft | 11 kts | 304° |
| 2026-05-05 15:26 | 45.64401 | 8.72705 | 762 ft | 0 kts | 304° |
| 2026-05-05 15:27 | 45.64402 | 8.72705 | 762 ft | 0 kts | 304° |
| 2026-05-05 15:27 | 45.64403 | 8.72701 | 763 ft | 1 kts | 291° |
| 2026-05-05 15:27 | 45.64386 | 8.72673 | 762 ft | 9 kts | 183° |
| 2026-05-05 15:27 | 45.64283 | 8.72691 | 761 ft | 18 kts | 172° |
| 2026-05-05 15:28 | 45.64155 | 8.72718 | 758 ft | 18 kts | 172° |
| 2026-05-05 15:28 | 45.64031 | 8.72758 | 755 ft | 18 kts | 166° |
| 2026-05-05 15:28 | 45.63928 | 8.72741 | 754 ft | 14 kts | 255° |
| 2026-05-05 15:28 | 45.63947 | 8.72614 | 755 ft | 11 kts | 287° |
| 2026-05-05 15:29 | 45.63952 | 8.72501 | 755 ft | 11 kts | 261° |
| 2026-05-05 15:29 | 45.63937 | 8.72388 | 756 ft | 11 kts | 260° |
| 2026-05-05 15:29 | 45.63923 | 8.72265 | 757 ft | 13 kts | 264° |
| 2026-05-05 15:29 | 45.63918 | 8.72110 | 758 ft | 16 kts | 268° |
| 2026-05-05 15:30 | 45.63903 | 8.71933 | 759 ft | 16 kts | 258° |
| 2026-05-05 15:30 | 45.63834 | 8.71828 | 758 ft | 14 kts | 191° |
| 2026-05-05 15:30 | 45.63727 | 8.71846 | 756 ft | 16 kts | 169° |
| 2026-05-05 15:30 | 45.63601 | 8.71880 | 752 ft | 19 kts | 169° |
| 2026-05-05 15:31 | 45.63462 | 8.71920 | 749 ft | 21 kts | 169° |
| 2026-05-05 15:31 | 45.63309 | 8.71962 | 746 ft | 22 kts | 169° |
| 2026-05-05 15:31 | 45.63150 | 8.72006 | 742 ft | 24 kts | 169° |
| 2026-05-05 15:31 | 45.62972 | 8.72055 | 739 ft | 27 kts | 169° |
| 2026-05-05 15:32 | 45.62777 | 8.72109 | 735 ft | 29 kts | 169° |
| 2026-05-05 15:32 | 45.62574 | 8.72165 | 732 ft | 29 kts | 169° |
| 2026-05-05 15:32 | 45.62375 | 8.72220 | 728 ft | 29 kts | 169° |
| 2026-05-05 15:32 | 45.62175 | 8.72275 | 724 ft | 28 kts | 169° |
| 2026-05-05 15:33 | 45.61979 | 8.72330 | 719 ft | 28 kts | 169° |
| 2026-05-05 15:33 | 45.61783 | 8.72384 | 715 ft | 28 kts | 169° |
| 2026-05-05 15:33 | 45.61598 | 8.72434 | 710 ft | 19 kts | 169° |
| 2026-05-05 15:33 | 45.61475 | 8.72467 | 707 ft | 17 kts | 169° |
| 2026-05-05 15:34 | 45.61401 | 8.72388 | 706 ft | 14 kts | 256° |
| 2026-05-05 15:34 | 45.61383 | 8.72257 | 706 ft | 12 kts | 259° |
| 2026-05-05 15:34 | 45.61345 | 8.72190 | 706 ft | 8 kts | 176° |
| 2026-05-05 15:34 | 45.61286 | 8.72208 | 705 ft | 10 kts | 167° |
| 2026-05-05 15:35 | 45.61205 | 8.72234 | 703 ft | 13 kts | 167° |
| 2026-05-05 15:35 | 45.61142 | 8.72196 | 702 ft | 9 kts | 248° |
| 2026-05-05 15:35 | 45.61118 | 8.72148 | 702 ft | 5 kts | 196° |
| 2026-05-05 15:35 | 45.61055 | 8.72146 | 701 ft | 12 kts | 170° |
| 2026-05-05 15:36 | 45.60961 | 8.72172 | 699 ft | 14 kts | 169° |
| 2026-05-05 15:36 | 45.60865 | 8.72199 | 697 ft | 13 kts | 169° |
| 2026-05-05 15:36 | 45.60776 | 8.72225 | 696 ft | 39 kts | 168° |
| 2026-05-05 15:36 | 45.60655 | 8.72260 | 694 ft | 5 kts | 170° |
| 2026-05-05 15:37 | 45.60621 | 8.72253 | 693 ft | 4 kts | 229° |
| 2026-05-05 15:37 | 45.60614 | 8.72210 | 693 ft | 3 kts | 263° |
| 2026-05-05 15:37 | 45.60611 | 8.72190 | 693 ft | 2 kts | 262° |
| 2026-05-05 15:37 | 45.60608 | 8.72161 | 693 ft | 0 kts | 259° |
| 2026-05-05 15:38 | 45.60607 | 8.72159 | 693 ft | 0 kts | 259° |
| 2026-05-05 15:38 | 45.60607 | 8.72158 | 693 ft | 0 kts | 259° |
| 2026-05-05 15:38 | 45.60605 | 8.72142 | 693 ft | 0 kts | 259° |
| 2026-05-05 15:38 | 45.60605 | 8.72140 | 693 ft | 0 kts | 260° |